LTAY/DNZ METAR and TAF weather

Enter ICAO airport designator
Station Type Date Time Source
LTAY METAR 2022/11/27 08:50 UTC NOAA

LTAY 270850Z 10011KT CAVOK 07/01 Q1020


Station Type Date Time Source
LTAY Decoded METAR 2022/11/27 08:50 UTC NOAA

Cardak, Turkey (LTAY) 37-47N 029-42E
Nov 27, 2022 - 03:50 AM EST / 2022.11.27 0850 UTC
Wind: from the E (100 degrees) at 13 MPH (11 KT):0
Visibility: greater than 7 mile(s):0
Temperature: 44 F (7 C)
Dew Point: 33 F (1 C)
Relative Humidity: 65%
Pressure (altimeter): 30.12 in. Hg (1020 hPa)
ob: LTAY 270850Z 10011KT CAVOK 07/01 Q1020
cycle: 9

Station Type Date Time Source
LTAY TAF UTC NOAA

Error!

Example: see airport list